Terminal Aerodrome Forecast
Issued by NWS

Home | Current Version | Previous Version | Graphics & Text | Print | Product List | Glossary On
Versions: 1 2 3 4 5 6 7 8 9 10 11 12 13 14 15 16 17
000
FTUS43 KUNR 251724
TAFGCC
TAF
KGCC 251724Z 2518/2618 29010KT P6SM BKN040
      TEMPO 2518/2522 -TSRA BKN040CB
     FM260200 24005KT P6SM SCT100=

USA.gov is the U.S. government's official web portal to all federal, state and local government web resources and services.